Vanzant, Kentucky
Current Conditions -  °F | °C
As of 2:56 PM on Tuesday 21 Oct 2014 (Local Time) from KOWB Reporting Station
Broken Clouds Broken Clouds  
Wind Chill: 65°   Ceiling: 4600
Heat Index: 65°   Visibility: 10mi
Dew Point: 45°   Wind: 13mph
Humidity: 48%   Direction: 10°N
Pressure: 30.08"   Gusts: NA
Location:  37.6217°N, 86.5365°W
Report Text: KOWB 211956Z 01011KT 10SM BKN046 18/07 A3008 RMK AO2 T01830072 SLP184
Loading
Personal Weather Stations






























Interactive Weather Map
Tropical Storm Tracking
New forecast layout! Learn more

10-Day Weather Forecast

Advertisements
Track Severe Weather on mobile